Time;durP1;ratioP1;P1;durP2;ratioP2;P2;SDS_P1;SDS_P2;PMS_P1;PMS_P2;Temp;Humidity;BMP_temperature;BMP_pressure;BME280_temperature;BME280_humidity;BME280_pressure;Samples;Min_cycle;Max_cycle;Signal;HPM_P1;HPM_P2
2022/02/27 00:00:16;;;;;;;213.97;101.55;;;;;;;-1.28;71.03;98684.70;1812983;77;28118;-82
2022/02/27 00:02:45;;;;;;;205.67;96.72;;;;;;;-1.28;71.16;98688.20;1812604;77;26274;-83
2022/02/27 00:05:12;;;;;;;199.82;97.85;;;;;;;-1.29;71.22;98686.51;1812968;77;25831;-83
2022/02/27 00:07:38;;;;;;;207.22;100.40;;;;;;;-1.27;71.25;98690.37;1822835;77;25741;-81
2022/02/27 00:10:07;;;;;;;211.22;102.17;;;;;;;-1.29;71.21;98685.19;1846407;77;25700;-83
2022/02/27 00:12:34;;;;;;;203.88;98.90;;;;;;;-1.29;71.22;98680.36;1846494;77;27598;-85
2022/02/27 00:15:01;;;;;;;193.40;96.35;;;;;;;-1.30;71.12;98679.98;1846299;77;26208;-82
2022/02/27 00:17:28;;;;;;;201.90;97.60;;;;;;;-1.32;71.11;98678.77;1846110;77;26433;-84
2022/02/27 00:19:55;;;;;;;199.97;96.95;;;;;;;-1.34;71.08;98683.34;1846358;76;26220;-83
2022/02/27 00:22:22;;;;;;;205.87;101.95;;;;;;;-1.38;71.14;98680.53;1846345;77;25764;-82
2022/02/27 00:24:48;;;;;;;197.70;98.95;;;;;;;-1.37;71.29;98684.03;1846015;77;27602;-82
2022/02/27 00:27:15;;;;;;;193.57;96.17;;;;;;;-1.35;71.33;98684.30;1846067;76;25728;-82
2022/02/27 00:29:41;;;;;;;198.23;95.12;;;;;;;-1.32;71.21;98682.73;1846248;77;25844;-85
2022/02/27 00:32:08;;;;;;;204.43;98.55;;;;;;;-1.32;71.12;98674.80;1846317;77;25767;-84
2022/02/27 00:34:35;;;;;;;196.63;100.42;;;;;;;-1.40;70.93;98679.78;1846256;77;25677;-85
2022/02/27 00:37:02;;;;;;;202.68;99.52;;;;;;;-1.55;70.92;98682.15;1846298;76;27346;-84
2022/02/27 00:39:28;;;;;;;210.13;103.35;;;;;;;-1.60;71.07;98682.96;1845539;77;25863;-83
2022/02/27 00:41:55;;;;;;;201.92;99.15;;;;;;;-1.62;71.24;98688.83;1846203;76;25939;-82
2022/02/27 00:44:21;;;;;;;203.70;99.28;;;;;;;-1.60;71.31;98691.75;1845466;77;25755;-85
2022/02/27 00:46:48;;;;;;;212.10;102.12;;;;;;;-1.60;71.26;98686.93;1846139;77;25382;-82
2022/02/27 00:49:15;;;;;;;208.15;99.87;;;;;;;-1.65;71.20;98696.50;1846243;76;27176;-86
2022/02/27 00:51:41;;;;;;;211.50;98.90;;;;;;;-1.68;71.24;98690.08;1846204;76;26225;-82
2022/02/27 00:54:08;;;;;;;215.05;99.00;;;;;;;-1.71;71.31;98687.66;1846314;77;25679;-85
2022/02/27 00:56:36;;;;;;;197.72;95.32;;;;;;;-1.71;71.42;98696.08;1846251;77;26333;-82
2022/02/27 00:59:03;;;;;;;198.72;92.40;;;;;;;-1.73;71.43;98691.36;1846405;76;25707;-82
2022/02/27 01:01:30;;;;;;;193.57;91.75;;;;;;;-1.74;71.50;98693.63;1846215;76;27349;-82
2022/02/27 01:03:57;;;;;;;189.40;92.33;;;;;;;-1.79;71.52;98687.31;1846124;76;25783;-81
2022/02/27 01:06:24;;;;;;;184.05;88.35;;;;;;;-1.78;71.65;98700.08;1845889;77;25929;-82
2022/02/27 01:08:51;;;;;;;181.97;87.75;;;;;;;-1.75;71.66;98689.28;1846348;77;25757;-86
2022/02/27 01:11:18;;;;;;;168.30;86.28;;;;;;;-1.75;71.71;98698.55;1846348;76;25245;-85
2022/02/27 01:13:45;;;;;;;175.65;87.72;;;;;;;-1.72;71.77;98692.58;1846259;76;27634;-82
2022/02/27 01:16:11;;;;;;;169.80;84.67;;;;;;;-1.67;71.74;98696.22;1846198;76;26301;-84
2022/02/27 01:18:38;;;;;;;172.53;83.75;;;;;;;-1.66;71.76;98693.95;1846276;76;26414;-83
2022/02/27 01:21:05;;;;;;;176.75;85.90;;;;;;;-1.68;71.81;98689.23;1846209;77;25816;-85
2022/02/27 01:23:31;;;;;;;174.93;85.45;;;;;;;-1.67;71.84;98689.61;1846082;77;25806;-83
2022/02/27 01:25:58;;;;;;;181.52;88.70;;;;;;;-1.69;71.86;98690.22;1846181;76;28443;-82
2022/02/27 01:28:25;;;;;;;233.87;102.05;;;;;;;-1.72;71.88;98692.58;1846186;76;25742;-82
2022/02/27 01:30:51;;;;;;;251.45;111.47;;;;;;;-1.76;71.89;98691.56;1846159;77;25823;-82
2022/02/27 01:33:18;;;;;;;229.25;109.48;;;;;;;-1.73;71.97;98690.03;1846340;76;25701;-82
2022/02/27 01:35:45;;;;;;;187.32;91.60;;;;;;;-1.71;71.99;98684.17;1846298;77;25776;-83
2022/02/27 01:38:11;;;;;;;170.15;83.55;;;;;;;-1.72;71.99;98687.77;1846231;77;28376;-83
2022/02/27 01:40:38;;;;;;;170.70;84.25;;;;;;;-1.73;72.09;98684.27;1846179;77;25810;-86
2022/02/27 01:43:04;;;;;;;192.30;91.40;;;;;;;-1.70;72.14;98683.22;1846283;77;26441;-82
2022/02/27 01:45:31;;;;;;;193.60;98.92;;;;;;;-1.70;72.18;98677.45;1846256;76;25710;-82
2022/02/27 01:47:58;;;;;;;180.87;88.75;;;;;;;-1.68;72.21;98682.14;1846265;77;25695;-83
2022/02/27 01:50:24;;;;;;;162.20;84.45;;;;;;;-1.68;72.19;98681.29;1846163;76;27403;-82
2022/02/27 01:52:51;;;;;;;168.70;85.25;;;;;;;-1.67;72.21;98683.84;1846080;77;25717;-83
2022/02/27 01:55:18;;;;;;;167.45;84.77;;;;;;;-1.67;72.21;98677.22;1846279;76;25766;-82
2022/02/27 01:57:45;;;;;;;175.27;86.92;;;;;;;-1.67;72.25;98672.40;1846410;77;26350;-82
2022/02/27 02:00:14;;;;;;;178.50;88.42;;;;;;;-1.63;72.30;98670.77;1846330;77;26221;-83
2022/02/27 02:02:44;;;;;;;167.07;84.95;;;;;;;-1.61;72.33;98673.32;1846204;77;27350;-83
2022/02/27 02:05:11;;;;;;;190.07;91.80;;;;;;;-1.64;72.36;98670.40;1845892;77;25316;-82
2022/02/27 02:07:37;;;;;;;192.00;91.47;;;;;;;-1.61;72.35;98666.70;1846150;76;25874;-82
2022/02/27 02:10:05;;;;;;;177.35;88.70;;;;;;;-1.60;72.36;98670.57;1811133;77;25757;-82
2022/02/27 02:12:32;;;;;;;177.68;87.37;;;;;;;-1.58;72.42;98676.61;1846307;76;25761;-83
2022/02/27 02:14:59;;;;;;;171.70;85.83;;;;;;;-1.54;72.49;98668.81;1846092;76;27361;-83
2022/02/27 02:17:26;;;;;;;196.78;93.50;;;;;;;-1.54;72.54;98670.14;1846108;77;25718;-84
2022/02/27 02:19:54;;;;;;;199.68;93.47;;;;;;;-1.59;72.72;98680.21;1782278;74;25361;-89
2022/02/27 02:22:20;;;;;;;210.63;95.30;;;;;;;-1.55;72.87;98678.18;1775346;78;26468;-88
2022/02/27 02:24:47;;;;;;;221.47;93.10;;;;;;;-1.50;73.02;98681.38;1767700;80;25687;-89
2022/02/27 02:27:14;;;;;;;212.97;89.92;;;;;;;-1.55;73.12;98678.18;1743504;80;27434;-89
2022/02/27 02:29:41;;;;;;;209.90;90.97;;;;;;;-1.56;73.30;98681.30;1761884;80;25847;-89
2022/02/27 02:32:08;;;;;;;238.10;98.85;;;;;;;-1.58;73.45;98690.33;1776239;79;25669;-88
2022/02/27 02:34:35;;;;;;;209.35;94.58;;;;;;;-1.58;73.58;98689.00;1770987;79;26332;-88
2022/02/27 02:37:02;;;;;;;196.95;88.70;;;;;;;-1.59;73.72;98690.80;1797224;78;25736;-89
2022/02/27 02:39:30;;;;;;;187.35;86.65;;;;;;;-1.56;73.86;98696.34;1813671;78;27404;-88
2022/02/27 02:41:59;;;;;;;189.87;84.37;;;;;;;-1.53;73.84;98695.66;1774777;78;25721;-90
2022/02/27 02:44:27;;;;;;;179.57;82.82;;;;;;;-1.50;73.84;98700.77;1753196;81;25748;-90
2022/02/27 02:46:53;;;;;;;189.85;83.52;;;;;;;-1.49;73.87;98704.26;1768995;80;26296;-89
2022/02/27 02:49:20;;;;;;;195.30;87.00;;;;;;;-1.50;73.84;98700.77;1769147;80;25684;-89
2022/02/27 02:51:47;;;;;;;209.07;84.70;;;;;;;-1.50;73.89;98703.88;1769221;80;27177;-88
2022/02/27 02:54:13;;;;;;;180.22;82.72;;;;;;;-1.50;73.91;98697.27;1769316;79;25705;-88
2022/02/27 02:56:41;;;;;;;194.00;84.95;;;;;;;-1.46;74.06;98706.70;1771848;79;25781;-88
2022/02/27 02:59:08;;;;;;;196.72;84.13;;;;;;;-1.41;74.07;98705.05;1785513;79;26832;-90
2022/02/27 03:01:35;;;;;;;195.68;87.30;;;;;;;-1.47;74.03;98706.33;1807149;79;25752;-88
2022/02/27 03:04:03;;;;;;;194.77;85.92;;;;;;;-1.48;74.12;98707.28;1812523;78;28140;-89
2022/02/27 03:06:31;;;;;;;214.02;92.08;;;;;;;-1.50;74.23;98709.19;1771534;80;25740;-89
2022/02/27 03:08:59;;;;;;;272.80;104.58;;;;;;;-1.53;74.33;98708.06;1781596;80;25830;-89
2022/02/27 03:11:26;;;;;;;251.22;104.83;;;;;;;-1.53;74.41;98710.70;1774179;80;25754;-89
2022/02/27 03:13:53;;;;;;;310.17;111.55;;;;;;;-1.51;74.51;98704.83;1774302;80;25784;-88
2022/02/27 03:16:19;;;;;;;312.40;119.42;;;;;;;-1.48;74.53;98707.28;1774071;80;27429;-89
2022/02/27 03:18:46;;;;;;;292.45;116.60;;;;;;;-1.46;74.56;98712.00;1774069;79;26271;-88
2022/02/27 03:21:13;;;;;;;306.63;117.10;;;;;;;-1.45;74.59;98708.41;1774183;80;25679;-89
2022/02/27 03:23:39;;;;;;;305.98;114.25;;;;;;;-1.46;74.57;98713.33;1805567;79;25832;-89
2022/02/27 03:26:06;;;;;;;241.65;106.65;;;;;;;-1.45;74.58;98720.32;1806784;78;26022;-89
2022/02/27 03:28:33;;;;;;;245.82;103.40;;;;;;;-1.45;74.59;98724.30;1774390;80;27449;-88
2022/02/27 03:30:59;;;;;;;230.35;97.70;;;;;;;-1.44;74.63;98723.31;1760971;80;25769;-88
2022/02/27 03:33:26;;;;;;;221.97;97.02;;;;;;;-1.49;74.59;98720.15;1774576;78;25725;-88
2022/02/27 03:35:53;;;;;;;233.02;96.57;;;;;;;-1.49;74.67;98726.77;1768435;79;25744;-88
2022/02/27 03:38:19;;;;;;;222.37;95.62;;;;;;;-1.50;74.65;98727.24;1769718;79;25726;-88
2022/02/27 03:40:46;;;;;;;226.73;96.37;;;;;;;-1.49;74.70;98734.72;1770208;79;27323;-89
2022/02/27 03:43:13;;;;;;;224.00;95.10;;;;;;;-1.49;74.77;98731.59;1774596;78;25685;-90
2022/02/27 03:45:40;;;;;;;232.35;97.60;;;;;;;-1.53;74.74;98734.53;1774761;78;26178;-88
2022/02/27 03:48:06;;;;;;;226.75;98.30;;;;;;;-1.53;74.84;98727.44;1774222;80;25918;-89
2022/02/27 03:50:33;;;;;;;225.35;97.60;;;;;;;-1.53;74.89;98733.22;1779740;78;25804;-89
2022/02/27 03:53:00;;;;;;;218.97;98.10;;;;;;;-1.54;74.93;98738.14;1784485;79;27343;-88
2022/02/27 03:55:26;;;;;;;238.87;103.58;;;;;;;-1.57;74.99;98746.31;1774400;79;25998;-89
2022/02/27 03:57:53;;;;;;;253.05;104.38;;;;;;;-1.54;75.08;98738.14;1774228;79;25741;-89
2022/02/27 04:00:20;;;;;;;252.68;106.07;;;;;;;-1.52;75.04;98741.53;1774149;79;25769;-88
2022/02/27 04:02:47;;;;;;;237.15;103.05;;;;;;;-1.50;75.07;98742.28;1774281;79;25959;-89
2022/02/27 04:05:15;;;;;;;232.75;101.40;;;;;;;-1.53;75.05;98740.69;1771359;79;28109;-90
2022/02/27 04:07:43;;;;;;;234.22;102.92;;;;;;;-1.54;75.11;98740.78;1774100;79;25799;-89
2022/02/27 04:10:11;;;;;;;250.75;117.85;;;;;;;-1.52;75.14;98737.56;1771860;79;25822;-89
2022/02/27 04:12:37;;;;;;;240.35;109.70;;;;;;;-1.49;75.17;98743.98;1774215;79;25728;-89
2022/02/27 04:15:06;;;;;;;242.97;107.00;;;;;;;-1.49;75.17;98743.98;1773934;79;25693;-89
2022/02/27 04:17:33;;;;;;;226.15;102.53;;;;;;;-1.45;75.22;98741.00;1779927;78;28063;-88
2022/02/27 04:20:01;;;;;;;213.80;101.10;;;;;;;-1.43;75.22;98738.25;1772884;79;26242;-89
2022/02/27 04:22:28;;;;;;;220.15;102.07;;;;;;;-1.48;75.18;98745.69;1770830;79;25804;-88
2022/02/27 04:24:55;;;;;;;207.65;95.53;;;;;;;-1.47;75.23;98734.14;1774282;79;25800;-88
2022/02/27 04:27:21;;;;;;;207.43;98.55;;;;;;;-1.46;75.30;98747.28;1771499;79;25763;-89
2022/02/27 04:29:48;;;;;;;199.15;96.05;;;;;;;-1.43;75.33;98746.20;1769326;80;27623;-89
2022/02/27 04:32:15;;;;;;;193.17;94.87;;;;;;;-1.37;75.34;98750.25;1769162;80;25757;-89
2022/02/27 04:34:41;;;;;;;182.17;87.17;;;;;;;-1.35;75.33;98753.17;1768801;80;25767;-89
2022/02/27 04:37:08;;;;;;;172.85;85.80;;;;;;;-1.31;75.37;98748.02;1768562;81;25801;-89
2022/02/27 04:39:35;;;;;;;190.97;87.00;;;;;;;-1.28;75.44;98747.81;1769307;80;25753;-90
2022/02/27 04:42:01;;;;;;;181.43;83.22;;;;;;;-1.23;75.49;98747.52;1769262;81;27187;-89
2022/02/27 04:44:28;;;;;;;183.78;84.42;;;;;;;-1.17;75.51;98751.05;1769680;79;26033;-89
2022/02/27 04:46:55;;;;;;;184.55;84.85;;;;;;;-1.17;75.48;98744.42;1769868;79;25781;-90
2022/02/27 04:49:22;;;;;;;186.95;85.95;;;;;;;-1.14;75.51;98743.75;1769851;79;25679;-90
2022/02/27 04:51:49;;;;;;;162.60;79.47;;;;;;;-1.09;75.54;98744.26;1781004;78;25737;-90
2022/02/27 04:54:15;;;;;;;173.95;80.92;;;;;;;-1.09;75.51;98745.58;1780189;79;27336;-89
2022/02/27 04:56:42;;;;;;;165.10;81.10;;;;;;;-1.04;75.60;98745.27;1774134;80;25699;-89
2022/02/27 04:59:09;;;;;;;163.35;77.55;;;;;;;-0.96;75.62;98739.42;1774108;80;25243;-90
2022/02/27 05:01:35;;;;;;;154.18;81.47;;;;;;;-0.95;75.58;98742.45;1774104;80;25733;-89
2022/02/27 05:04:03;;;;;;;145.62;77.27;;;;;;;-0.96;75.49;98746.05;1798230;79;25762;-89
2022/02/27 05:06:29;;;;;;;160.67;80.50;;;;;;;-0.96;75.55;98740.28;1807307;79;27365;-90
2022/02/27 05:08:56;;;;;;;170.82;82.57;;;;;;;-1.03;75.59;98746.97;1807329;79;25749;-90
2022/02/27 05:11:23;;;;;;;163.82;86.50;;;;;;;-1.12;75.64;98751.12;1807389;78;25782;-89
2022/02/27 05:13:50;;;;;;;161.77;82.27;;;;;;;-1.14;75.79;98745.07;1807394;78;25729;-90
2022/02/27 05:16:16;;;;;;;149.45;75.25;;;;;;;-1.22;75.92;98752.70;1781997;78;25938;-90
2022/02/27 05:18:43;;;;;;;151.85;79.60;;;;;;;-1.25;76.10;98750.27;1778851;80;27204;-89
2022/02/27 05:21:09;;;;;;;153.80;79.65;;;;;;;-1.22;76.22;98751.86;1769037;80;25787;-89
2022/02/27 05:23:36;;;;;;;167.18;83.50;;;;;;;-1.19;76.29;98755.12;1772206;80;25771;-89
2022/02/27 05:26:03;;;;;;;183.32;92.80;;;;;;;-1.19;76.28;98755.12;1753745;80;25875;-90
2022/02/27 05:28:29;;;;;;;175.62;91.15;;;;;;;-1.13;76.36;98762.67;1752186;81;26394;-90
2022/02/27 05:30:56;;;;;;;180.15;89.42;;;;;;;-1.04;76.35;98761.66;1752096;80;28159;-89
2022/02/27 05:33:23;;;;;;;181.18;88.85;;;;;;;-0.97;76.29;98763.79;1752121;81;25749;-90
2022/02/27 05:35:50;;;;;;;176.05;89.67;;;;;;;-0.97;76.24;98766.44;1752058;81;25745;-90
2022/02/27 05:38:16;;;;;;;176.15;84.65;;;;;;;-0.92;76.28;98758.15;1752161;80;26642;-90
2022/02/27 05:40:43;;;;;;;163.50;84.50;;;;;;;-0.89;76.23;98759.27;1752285;81;25781;-90
2022/02/27 05:43:10;;;;;;;170.57;83.07;;;;;;;-0.87;76.17;98757.37;1757666;80;28170;-90
2022/02/27 05:45:36;;;;;;;169.90;85.35;;;;;;;-0.86;76.16;98757.73;1761268;80;25846;-89
2022/02/27 05:48:03;;;;;;;177.43;85.32;;;;;;;-0.85;76.17;98757.64;1752445;80;25829;-90
2022/02/27 05:50:30;;;;;;;166.43;85.53;;;;;;;-0.82;76.17;98751.24;1753672;80;26306;-90
2022/02/27 05:52:57;;;;;;;184.25;91.12;;;;;;;-0.84;76.15;98754.48;1753885;80;25695;-90
2022/02/27 05:55:23;;;;;;;183.32;89.87;;;;;;;-0.83;76.25;98757.50;1753484;80;27540;-90
2022/02/27 05:57:50;;;;;;;186.03;91.17;;;;;;;-0.80;76.30;98766.57;1753788;80;25837;-90
2022/02/27 06:00:17;;;;;;;173.02;88.22;;;;;;;-0.82;76.32;98761.38;1753776;81;25735;-90
2022/02/27 06:02:44;;;;;;;174.05;89.95;;;;;;;-0.75;76.38;98771.09;1753782;80;25772;-90
2022/02/27 06:05:10;;;;;;;176.25;90.45;;;;;;;-0.72;76.34;98766.87;1733077;81;25706;-90
2022/02/27 06:07:37;;;;;;;166.92;86.67;;;;;;;-0.67;76.39;98770.06;1734025;80;27358;-88
2022/02/27 06:10:05;;;;;;;157.78;82.02;;;;;;;-0.62;76.43;98777.23;1745484;82;26448;-90
2022/02/27 06:12:32;;;;;;;157.32;79.00;;;;;;;-0.56;76.47;98780.76;1745437;82;25756;-90
2022/02/27 06:14:58;;;;;;;140.57;75.37;;;;;;;-0.51;76.50;98778.64;1744290;81;26464;-90
2022/02/27 06:17:25;;;;;;;153.40;75.70;;;;;;;-0.48;76.55;98785.03;1742009;81;25920;-90
2022/02/27 06:19:52;;;;;;;138.35;72.75;;;;;;;-0.43;76.60;98779.41;1748418;78;27374;-90
2022/02/27 06:22:20;;;;;;;134.93;69.87;;;;;;;-0.37;76.59;98779.84;1782650;78;26053;-90
2022/02/27 06:24:47;;;;;;;140.75;73.42;;;;;;;-0.28;76.61;98781.45;1771659;80;26269;-90
2022/02/27 06:27:14;;;;;;;129.53;68.87;;;;;;;-0.21;76.60;98770.75;1771291;80;26549;-90
2022/02/27 06:29:40;;;;;;;136.70;70.00;;;;;;;-0.16;76.56;98780.09;1771961;78;25497;-90
2022/02/27 06:32:07;;;;;;;133.90;65.80;;;;;;;-0.10;76.57;98777.45;1776312;78;27348;-90
2022/02/27 06:34:34;;;;;;;127.27;65.92;;;;;;;-0.05;76.55;98774.00;1773670;78;25253;-90
2022/02/27 06:37:00;;;;;;;126.92;66.45;;;;;;;-0.05;76.54;98777.98;1800996;79;25815;-90
2022/02/27 06:39:27;;;;;;;129.07;68.52;;;;;;;-0.05;76.54;98776.66;1808114;78;26273;-90
2022/02/27 06:41:54;;;;;;;125.95;66.53;;;;;;;0.01;76.62;98778.84;1810531;78;25735;-90
2022/02/27 06:44:20;;;;;;;122.05;64.55;;;;;;;0.09;76.62;98780.95;1812665;78;27348;-90
2022/02/27 06:46:47;;;;;;;119.47;63.38;;;;;;;0.16;76.60;98785.70;1818291;78;25811;-90
2022/02/27 06:49:14;;;;;;;132.95;67.32;;;;;;;0.24;76.58;98789.13;1818296;78;25753;-90
2022/02/27 06:51:40;;;;;;;122.13;64.55;;;;;;;0.30;76.53;98784.20;1818329;78;26405;-90
2022/02/27 06:54:07;;;;;;;119.55;61.90;;;;;;;0.38;76.49;98786.75;1789975;78;25625;-90
2022/02/27 06:56:33;;;;;;;127.12;65.72;;;;;;;0.45;76.46;98788.02;1771320;80;27209;-90
2022/02/27 06:59:00;;;;;;;123.28;63.92;;;;;;;0.51;76.35;98794.18;1771650;80;25706;-90
2022/02/27 07:01:27;;;;;;;121.17;63.13;;;;;;;0.59;76.30;98793.14;1770800;80;26254;-89
2022/02/27 07:03:53;;;;;;;134.52;66.33;;;;;;;0.66;76.17;98801.86;1771935;80;26121;-89
2022/02/27 07:06:20;;;;;;;137.18;69.05;;;;;;;0.68;76.07;98799.09;1771930;80;25242;-90
2022/02/27 07:08:46;;;;;;;133.87;69.97;;;;;;;0.66;76.05;98798.35;1771743;80;28391;-89
2022/02/27 07:11:13;;;;;;;133.22;71.75;;;;;;;0.68;76.06;98799.09;1771770;80;25723;-89
2022/02/27 07:13:41;;;;;;;127.72;69.32;;;;;;;0.74;76.01;98811.90;1771903;80;25712;-89
2022/02/27 07:16:07;;;;;;;133.67;67.75;;;;;;;0.76;75.87;98809.98;1772168;80;26297;-89
2022/02/27 07:18:34;;;;;;;137.97;70.95;;;;;;;0.79;75.78;98817.73;1771950;80;25250;-89
2022/02/27 07:21:00;;;;;;;154.63;75.87;;;;;;;0.82;75.76;98820.16;1771082;80;26767;-89
2022/02/27 07:23:27;;;;;;;150.97;76.42;;;;;;;0.86;75.68;98824.27;1771833;80;26451;-89
2022/02/27 07:25:53;;;;;;;141.62;73.83;;;;;;;0.88;75.67;98816.17;1772065;80;25298;-88
2022/02/27 07:28:20;;;;;;;146.28;74.30;;;;;;;0.92;75.69;98825.14;1771812;80;25734;-88
2022/02/27 07:30:47;;;;;;;134.25;71.30;;;;;;;0.98;75.66;98820.67;1771120;80;25866;-89
2022/02/27 07:33:14;;;;;;;134.00;68.62;;;;;;;1.06;75.58;98825.42;1771753;80;28406;-89
2022/02/27 07:35:40;;;;;;;131.57;65.25;;;;;;;1.12;75.47;98822.77;1771534;80;25798;-89
2022/02/27 07:38:07;;;;;;;129.20;65.05;;;;;;;1.15;75.40;98829.19;1771787;80;26173;-89
2022/02/27 07:40:34;;;;;;;130.78;66.87;;;;;;;1.13;75.35;98826.63;1771544;80;25727;-88
2022/02/27 07:43:00;;;;;;;123.92;64.92;;;;;;;1.20;75.45;98835.86;1771486;80;26068;-88
2022/02/27 07:45:27;;;;;;;126.95;63.15;;;;;;;1.30;75.48;98833.33;1771660;80;28019;-88
2022/02/27 07:47:53;;;;;;;117.90;61.58;;;;;;;1.39;75.41;98842.77;1771567;80;25746;-88
2022/02/27 07:50:20;;;;;;;125.67;61.50;;;;;;;1.49;75.20;98842.05;1771782;80;25719;-88
2022/02/27 07:52:46;;;;;;;110.72;58.45;;;;;;;1.54;75.16;98840.73;1770793;80;25898;-88
2022/02/27 07:55:13;;;;;;;112.97;57.48;;;;;;;1.60;75.00;98840.72;1771907;80;25897;-87
2022/02/27 07:57:40;;;;;;;118.42;57.90;;;;;;;1.58;74.71;98842.17;1771624;80;27432;-87
2022/02/27 08:00:07;;;;;;;105.85;56.00;;;;;;;1.57;74.68;98835.14;1771713;80;25711;-87
2022/02/27 08:02:34;;;;;;;115.37;56.83;;;;;;;1.53;74.56;98836.86;1771813;80;25767;-87
2022/02/27 08:05:00;;;;;;;110.70;56.83;;;;;;;1.53;74.57;98836.38;1771717;80;26795;-88
2022/02/27 08:07:27;;;;;;;113.77;55.65;;;;;;;1.55;74.55;98831.78;1771878;80;25658;-87
2022/02/27 08:09:53;;;;;;;108.07;55.38;;;;;;;1.54;74.57;98835.89;1771745;80;27482;-87
2022/02/27 08:12:20;;;;;;;103.10;56.20;;;;;;;1.55;74.61;98838.44;1771634;80;25790;-87
2022/02/27 08:14:47;;;;;;;111.92;57.55;;;;;;;1.51;74.57;98832.98;1771360;80;25684;-87
2022/02/27 08:17:17;;;;;;;108.80;55.58;;;;;;;1.54;74.66;98841.22;1771772;80;25724;-88
2022/02/27 08:19:45;;;;;;;103.90;53.58;;;;;;;1.57;74.61;98836.48;1771814;80;26651;-87
2022/02/27 08:22:11;;;;;;;101.82;54.25;;;;;;;1.59;74.56;98834.55;1781766;78;28115;-88
2022/02/27 08:24:38;;;;;;;105.55;53.25;;;;;;;1.59;74.42;98829.23;1792302;78;26101;-87
2022/02/27 08:27:05;;;;;;;103.27;54.10;;;;;;;1.64;74.42;98832.39;1794224;78;25731;-88
2022/02/27 08:29:32;;;;;;;103.25;54.53;;;;;;;1.65;74.34;98836.75;1792718;78;25801;-88
2022/02/27 08:31:58;;;;;;;101.90;55.20;;;;;;;1.68;74.25;98837.84;1790703;80;25715;-88
2022/02/27 08:34:27;;;;;;;97.92;52.75;;;;;;;1.74;74.14;98840.48;1790567;80;28757;-88
2022/02/27 08:36:54;;;;;;;98.90;50.45;;;;;;;1.73;74.00;98837.46;1790702;79;25721;-88
2022/02/27 08:39:21;;;;;;;99.87;54.20;;;;;;;1.64;73.98;98835.05;1790433;80;25793;-88
2022/02/27 08:41:47;;;;;;;110.30;55.08;;;;;;;1.57;73.95;98837.81;1790563;80;26531;-88
2022/02/27 08:44:14;;;;;;;104.17;54.70;;;;;;;1.56;74.03;98833.97;1790461;80;25752;-87
2022/02/27 08:46:40;;;;;;;99.15;55.08;;;;;;;1.56;74.12;98834.81;1789815;80;27410;-88
2022/02/27 08:49:07;;;;;;;106.27;57.13;;;;;;;1.54;74.06;98834.56;1790403;79;25672;-87
2022/02/27 08:51:34;;;;;;;105.05;57.53;;;;;;;1.51;74.13;98838.30;1790501;79;25724;-87
2022/02/27 08:54:02;;;;;;;109.95;57.35;;;;;;;1.57;74.25;98836.99;1790620;80;26609;-88
2022/02/27 08:56:29;;;;;;;114.67;59.85;;;;;;;1.64;74.10;98846.17;1790692;80;25756;-87
2022/02/27 08:58:56;;;;;;;115.42;59.90;;;;;;;1.64;73.93;98837.71;1790515;80;27557;-88
2022/02/27 09:01:22;;;;;;;110.78;61.02;;;;;;;1.65;74.03;98843.40;1790427;80;25772;-87
2022/02/27 09:03:49;;;;;;;122.50;65.12;;;;;;;1.71;74.17;98842.90;1790614;80;25405;-87
2022/02/27 09:06:16;;;;;;;108.83;58.85;;;;;;;1.89;74.44;98835.77;1790570;80;25765;-87
2022/02/27 09:08:42;;;;;;;106.92;57.95;;;;;;;2.27;74.61;98840.20;1790558;80;25680;-87
2022/02/27 09:11:10;;;;;;;107.92;55.23;;;;;;;2.46;74.42;98836.38;1790603;80;27520;-91
2022/02/27 09:13:36;;;;;;;105.30;56.08;;;;;;;2.58;73.86;98841.67;1790217;79;26169;-88
2022/02/27 09:16:03;;;;;;;101.53;55.35;;;;;;;2.55;73.46;98830.77;1790592;80;26309;-88
2022/02/27 09:18:30;;;;;;;101.80;56.15;;;;;;;2.62;73.37;98829.80;1790510;80;25732;-89
2022/02/27 09:20:56;;;;;;;100.38;53.92;;;;;;;2.66;73.30;98829.39;1789919;80;26598;-89
2022/02/27 09:23:23;;;;;;;93.17;51.37;;;;;;;2.78;73.22;98824.86;1776787;80;27526;-88
2022/02/27 09:25:49;;;;;;;96.90;51.28;;;;;;;2.90;72.97;98827.83;1776427;80;25764;-89
2022/02/27 09:28:16;;;;;;;89.92;49.93;;;;;;;3.03;72.75;98827.16;1776830;80;25672;-88
2022/02/27 09:30:44;;;;;;;83.92;48.50;;;;;;;3.13;72.22;98823.25;1776771;80;25822;-89
2022/02/27 09:33:10;;;;;;;90.80;51.28;;;;;;;3.14;72.19;98829.77;1776845;80;25626;-88
2022/02/27 09:35:37;;;;;;;82.22;46.50;;;;;;;3.17;72.02;98828.18;1776429;80;27507;-89
2022/02/27 09:38:04;;;;;;;94.17;48.42;;;;;;;3.07;71.52;98825.94;1776685;80;26274;-89
2022/02/27 09:40:32;;;;;;;90.45;48.52;;;;;;;2.95;71.52;98832.80;1776606;80;26421;-87
2022/02/27 09:42:59;;;;;;;91.87;49.03;;;;;;;2.95;71.80;98829.64;1776688;80;25835;-87
2022/02/27 09:45:26;;;;;;;88.50;45.35;;;;;;;2.95;71.77;98836.31;1776344;80;25780;-88
2022/02/27 09:47:55;;;;;;;90.12;45.43;;;;;;;2.96;71.71;98831.34;1776483;80;27589;-88
2022/02/27 09:50:23;;;;;;;72.58;40.15;;;;;;;3.00;71.58;98834.11;1776426;80;26272;-89
2022/02/27 09:52:50;;;;;;;71.45;38.95;;;;;;;3.07;71.61;98829.94;1776573;80;26321;-89
2022/02/27 09:55:18;;;;;;;66.20;37.48;;;;;;;3.17;71.45;98830.00;1777264;78;26351;-89
2022/02/27 09:57:46;;;;;;;62.83;34.50;;;;;;;3.56;71.84;98821.25;1787225;79;25756;-88
2022/02/27 10:00:16;;;;;;;58.50;32.10;;;;;;;4.10;71.68;98816.06;1785203;79;28477;-92
2022/02/27 10:03:04;;;;;;;51.70;28.55;;;;;;;4.61;71.47;98809.16;1780274;79;25300;-91
2022/02/27 10:05:31;;;;;;;56.00;29.57;;;;;;;5.00;70.49;98811.34;1769589;80;26478;-92
2022/02/27 10:08:02;;;;;;;57.83;29.65;;;;;;;5.17;70.09;98810.28;1779633;80;25688;-89
2022/02/27 10:10:30;;;;;;;55.23;30.05;;;;;;;5.32;69.58;98811.01;1779673;79;26052;-91
2022/02/27 10:12:57;;;;;;;49.95;28.77;;;;;;;5.32;68.92;98807.48;1779361;80;27531;-91
2022/02/27 10:15:24;;;;;;;66.80;37.30;;;;;;;5.39;68.96;98805.45;1779473;79;25772;-90
2022/02/27 10:17:51;;;;;;;80.25;36.55;;;;;;;5.72;68.78;98811.25;1779798;80;25798;-90
2022/02/27 10:20:27;;;;;;;43.42;23.05;;;;;;;5.78;68.10;98801.31;1780483;80;26324;-90
2022/02/27 10:22:53;;;;;;;;;;;;;;;5.85;67.70;98806.91;1791146;79;25749;-90
2022/02/27 10:25:27;;;;;;;33.40;19.85;;;;;;;5.87;66.69;98797.73;1793833;79;27603;-91
2022/02/27 10:28:02;;;;;;;37.83;20.52;;;;;;;5.94;66.86;98796.17;1794357;79;25759;-90
2022/02/27 10:30:39;;;;;;;42.13;21.05;;;;;;;6.17;66.81;98793.08;1794500;79;25768;-89
2022/02/27 10:33:11;;;;;;;37.55;19.67;;;;;;;6.48;66.65;98791.28;1794545;79;25841;-90
2022/02/27 10:35:52;;;;;;;33.20;20.02;;;;;;;6.76;66.20;98785.33;1794416;79;25743;-90
2022/02/27 10:38:45;;;;;;;36.60;21.82;;;;;;;7.14;65.49;98785.98;1794139;79;27416;-90
2022/02/27 10:41:21;;;;;;;36.63;18.92;;;;;;;7.35;64.92;98786.50;1765587;79;25807;-89
2022/02/27 10:43:45;;;;;;;31.85;18.25;;;;;;;7.80;65.43;98790.78;1793369;79;25762;-89
2022/02/27 10:46:13;;;;;;;28.50;17.48;;;;;;;8.15;64.17;98779.84;1794378;79;25881;-89
2022/02/27 10:48:41;;;;;;;32.75;18.12;;;;;;;8.06;63.08;98770.08;1794404;79;25788;-90
2022/02/27 10:51:11;;;;;;;30.45;16.57;;;;;;;7.77;62.46;98766.91;1794357;78;28311;-89
2022/02/27 10:53:41;;;;;;;27.73;16.17;;;;;;;7.56;62.44;98765.47;1793774;79;25707;-89
2022/02/27 10:56:10;;;;;;;25.05;14.20;;;;;;;7.34;62.03;98761.98;1794318;79;25793;-89
2022/02/27 10:58:46;;;;;;;22.82;13.20;;;;;;;7.35;62.26;98766.85;1794248;79;25684;-89
2022/02/27 11:01:22;;;;;;;20.10;12.13;;;;;;;7.36;61.45;98765.35;1794357;78;25839;-90
2022/02/27 11:03:52;;;;;;;24.32;14.65;;;;;;;7.13;61.23;98760.13;1794347;79;27373;-89
2022/02/27 11:06:20;;;;;;;27.95;15.30;;;;;;;6.84;60.84;98751.03;1794286;78;25748;-89
2022/02/27 11:08:47;;;;;;;27.65;15.45;;;;;;;6.70;61.04;98751.56;1794376;79;25709;-89
2022/02/27 11:11:15;;;;;;;27.30;15.15;;;;;;;6.60;61.07;98750.31;1794324;79;25755;-89
2022/02/27 11:13:46;;;;;;;29.87;17.12;;;;;;;6.48;60.84;98747.02;1794491;79;25735;-89